Terminal Aerodrome Forecast
Issued by NWS

Home | Current Version | Previous Version | Text Only | Print | Product List | Glossary On
Versions: 1 2 3 4 5 6 7 8 9 10 11 12 13 14 15 16 17
000
FTUS46 KPDT 231100
TAFPSC
TAF
KPSC 231127Z 2312/2412 21011KT P6SM OVC060
     FM231800 23014G21KT P6SM -SHRA BKN050 OVC080
     FM240100 20008KT P6SM VCSH BKN060 OVC090
     FM240600 22011KT P6SM -SHRA BKN050 OVC070=

USA.gov is the U.S. government's official web portal to all federal, state and local government web resources and services.